Time;durP1;ratioP1;P1;durP2;ratioP2;P2;SDS_P1;SDS_P2;PMS_P1;PMS_P2;Temp;Humidity;BMP_temperature;BMP_pressure;BME280_temperature;BME280_humidity;BME280_pressure;Samples;Min_cycle;Max_cycle;Signal;HPM_P1;HPM_P2
2021/10/18 00:01:18;;;;;;;8.43;6.78;;;;;;;;;;4990879;28;20193;-73
2021/10/18 00:03:45;;;;;;;7.05;6.35;;;;;;;;;;4981979;28;20685;-74
2021/10/18 00:06:14;;;;;;;7.68;6.88;;;;;;;;;;4991461;28;20201;-73
2021/10/18 00:08:41;;;;;;;6.32;5.57;;;;;;;;;;4989460;28;20205;-74
2021/10/18 00:11:08;;;;;;;7.40;6.80;;;;;;;;;;4989726;28;20708;-75
2021/10/18 00:13:35;;;;;;;6.57;5.97;;;;;;;;;;4990517;28;20708;-73
2021/10/18 00:16:02;;;;;;;10.85;7.22;;;;;;;;;;4990048;28;20197;-73
2021/10/18 00:18:29;;;;;;;7.97;7.18;;;;;;;;;;4989368;28;20664;-73
2021/10/18 00:20:56;;;;;;;6.28;5.70;;;;;;;;;;4986719;28;20665;-74
2021/10/18 00:23:29;;;;;;;10.73;7.35;;;;;;;;;;4982620;28;20683;-73
2021/10/18 00:25:57;;;;;;;8.48;6.20;;;;;;;;;;4985460;28;20546;-75
2021/10/18 00:28:24;;;;;;;12.10;5.93;;;;;;;;;;4992687;28;20208;-73
2021/10/18 00:30:52;;;;;;;7.35;6.65;;;;;;;;;;4991934;28;20217;-72
2021/10/18 00:33:20;;;;;;;7.93;6.85;;;;;;;;;;4991206;28;20213;-73
2021/10/18 00:35:48;;;;;;;8.13;6.90;;;;;;;;;;4992610;28;20799;-74
2021/10/18 00:38:15;;;;;;;10.45;6.78;;;;;;;;;;4993549;28;20288;-74
2021/10/18 00:40:44;;;;;;;9.85;6.22;;;;;;;;;;4993340;28;20197;-73
2021/10/18 00:43:12;;;;;;;9.23;6.05;;;;;;;;;;4991509;28;20256;-73
2021/10/18 00:45:39;;;;;;;7.05;6.00;;;;;;;;;;4989128;28;20198;-74
2021/10/18 00:48:06;;;;;;;7.65;6.55;;;;;;;;;;4989376;28;20209;-73
2021/10/18 00:50:33;;;;;;;7.18;6.47;;;;;;;;;;4989992;28;20198;-74
2021/10/18 00:53:01;;;;;;;6.07;5.35;;;;;;;;;;4989053;28;20209;-75
2021/10/18 00:55:29;;;;;;;7.93;6.75;;;;;;;;;;4989280;28;20236;-75
2021/10/18 00:57:57;;;;;;;7.13;6.43;;;;;;;;;;4988958;28;20245;-73
2021/10/18 01:00:24;;;;;;;7.90;6.50;;;;;;;;;;4988179;28;20194;-73
2021/10/18 01:02:51;;;;;;;5.70;5.07;;;;;;;;;;4989197;28;20213;-75
2021/10/18 01:05:18;;;;;;;5.38;4.80;;;;;;;;;;4988779;28;20229;-74
2021/10/18 01:07:46;;;;;;;7.20;6.40;;;;;;;;;;4984739;28;20197;-73
2021/10/18 01:10:13;;;;;;;8.63;6.00;;;;;;;;;;4989050;28;20727;-73
2021/10/18 01:12:40;;;;;;;6.65;5.85;;;;;;;;;;4988814;28;20198;-73
2021/10/18 01:15:09;;;;;;;5.68;5.05;;;;;;;;;;4989303;28;20220;-73
2021/10/18 01:17:36;;;;;;;8.35;5.85;;;;;;;;;;4989419;28;20205;-72
2021/10/18 01:20:03;;;;;;;5.90;5.20;;;;;;;;;;4989308;28;20205;-74
2021/10/18 01:22:32;;;;;;;7.85;6.55;;;;;;;;;;4990754;28;20201;-73
2021/10/18 01:24:59;;;;;;;6.97;5.72;;;;;;;;;;4975011;28;20665;-74
2021/10/18 01:27:26;;;;;;;6.75;5.75;;;;;;;;;;4990346;28;20682;-73
2021/10/18 01:29:53;;;;;;;6.30;5.70;;;;;;;;;;4989418;28;20236;-74
2021/10/18 01:32:20;;;;;;;5.70;5.03;;;;;;;;;;4989585;28;20204;-74
2021/10/18 01:34:52;;;;;;;5.95;5.43;;;;;;;;;;4994857;28;20213;-73
2021/10/18 01:37:19;;;;;;;6.03;5.53;;;;;;;;;;4994215;28;20193;-74
2021/10/18 01:39:48;;;;;;;6.38;5.60;;;;;;;;;;4989467;28;20190;-73
2021/10/18 01:42:15;;;;;;;8.57;5.60;;;;;;;;;;4984725;28;20204;-73
2021/10/18 01:44:42;;;;;;;5.30;4.80;;;;;;;;;;4986017;28;20256;-73
2021/10/18 01:47:09;;;;;;;6.40;5.22;;;;;;;;;;4993343;28;20201;-73
2021/10/18 01:49:36;;;;;;;5.97;5.25;;;;;;;;;;4992307;28;20210;-73
2021/10/18 01:52:03;;;;;;;7.57;4.95;;;;;;;;;;4994409;28;20244;-73
2021/10/18 01:54:30;;;;;;;5.13;4.43;;;;;;;;;;4994901;28;20220;-73
2021/10/18 01:56:59;;;;;;;5.30;4.68;;;;;;;;;;4992430;28;20197;-76
2021/10/18 01:59:26;;;;;;;5.55;5.05;;;;;;;;;;4994072;28;20561;-74
2021/10/18 02:01:53;;;;;;;5.90;5.40;;;;;;;;;;4982630;28;20545;-72
2021/10/18 02:04:20;;;;;;;5.82;4.95;;;;;;;;;;4976204;28;20207;-72
2021/10/18 02:06:47;;;;;;;5.43;4.85;;;;;;;;;;4987341;28;20627;-73
2021/10/18 02:09:14;;;;;;;5.43;4.93;;;;;;;;;;4992661;28;20204;-75
2021/10/18 02:11:41;;;;;;;6.03;5.07;;;;;;;;;;4992397;28;20204;-74
2021/10/18 02:14:09;;;;;;;6.20;4.25;;;;;;;;;;4991689;28;20198;-74
2021/10/18 02:16:36;;;;;;;9.90;5.55;;;;;;;;;;4992481;28;20228;-74
2021/10/18 02:19:03;;;;;;;6.93;5.20;;;;;;;;;;4990503;28;20256;-74
2021/10/18 02:21:30;;;;;;;5.35;4.85;;;;;;;;;;4992215;28;20197;-74
2021/10/18 02:23:57;;;;;;;6.38;4.82;;;;;;;;;;4992389;28;20206;-74
2021/10/18 02:26:24;;;;;;;5.30;4.53;;;;;;;;;;4991825;28;20210;-74
2021/10/18 02:28:51;;;;;;;5.15;4.65;;;;;;;;;;4992050;28;20198;-74
2021/10/18 02:31:20;;;;;;;5.05;4.20;;;;;;;;;;4990271;28;20249;-74
2021/10/18 02:33:47;;;;;;;5.90;5.10;;;;;;;;;;4993167;28;20612;-75
2021/10/18 02:36:14;;;;;;;7.10;4.00;;;;;;;;;;4991864;28;20271;-73
2021/10/18 02:38:41;;;;;;;5.35;4.88;;;;;;;;;;4994437;28;20656;-75
2021/10/18 02:41:09;;;;;;;6.10;5.30;;;;;;;;;;4992959;28;20573;-75
2021/10/18 02:43:36;;;;;;;5.55;3.88;;;;;;;;;;4994002;28;20201;-79
2021/10/18 02:46:03;;;;;;;5.43;4.93;;;;;;;;;;4989651;28;20206;-79
2021/10/18 02:48:31;;;;;;;4.95;4.38;;;;;;;;;;4986490;28;20271;-79
2021/10/18 02:50:59;;;;;;;6.50;4.43;;;;;;;;;;4993176;28;20198;-79
2021/10/18 02:53:26;;;;;;;5.18;4.45;;;;;;;;;;4986066;28;20668;-80
2021/10/18 02:55:53;;;;;;;4.43;4.03;;;;;;;;;;4981961;28;20221;-78
2021/10/18 02:58:20;;;;;;;5.50;4.97;;;;;;;;;;4989945;28;20205;-80
2021/10/18 03:00:47;;;;;;;4.55;4.15;;;;;;;;;;4990542;28;20252;-79
2021/10/18 03:03:14;;;;;;;4.40;3.97;;;;;;;;;;4991652;28;20194;-79
2021/10/18 03:05:42;;;;;;;4.82;4.35;;;;;;;;;;4991715;28;20240;-78
2021/10/18 03:08:09;;;;;;;6.70;4.38;;;;;;;;;;4989135;28;20202;-78
2021/10/18 03:10:40;;;;;;;5.53;3.50;;;;;;;;;;4991858;28;20193;-79
2021/10/18 03:13:07;;;;;;;4.20;3.80;;;;;;;;;;4989929;28;20198;-80
2021/10/18 03:15:34;;;;;;;5.53;4.47;;;;;;;;;;4991225;28;20210;-79
2021/10/18 03:18:01;;;;;;;5.15;4.65;;;;;;;;;;4989222;28;20660;-80
2021/10/18 03:20:28;;;;;;;4.55;4.15;;;;;;;;;;4990913;28;20252;-80
2021/10/18 03:22:56;;;;;;;5.43;3.83;;;;;;;;;;4989894;28;20484;-80
2021/10/18 03:25:24;;;;;;;5.07;4.57;;;;;;;;;;4992355;28;20657;-79
2021/10/18 03:27:51;;;;;;;6.10;4.20;;;;;;;;;;4990148;28;20620;-79
2021/10/18 03:30:18;;;;;;;4.55;3.80;;;;;;;;;;4989269;28;20656;-79
2021/10/18 03:32:45;;;;;;;4.85;3.83;;;;;;;;;;4985984;28;20198;-79
2021/10/18 03:35:12;;;;;;;4.55;4.07;;;;;;;;;;4988343;28;20241;-78
2021/10/18 03:37:39;;;;;;;4.47;3.50;;;;;;;;;;4981594;28;20189;-79
2021/10/18 03:40:10;;;;;;;5.53;3.65;;;;;;;;;;4981135;28;20201;-79
2021/10/18 03:42:38;;;;;;;4.35;3.95;;;;;;;;;;4988509;28;21570;-80
2021/10/18 03:45:05;;;;;;;4.20;3.50;;;;;;;;;;4990416;28;20869;-79
2021/10/18 03:47:32;;;;;;;4.75;3.83;;;;;;;;;;4989793;28;20220;-79
2021/10/18 03:49:59;;;;;;;4.85;3.67;;;;;;;;;;4990192;28;20206;-80
2021/10/18 03:52:26;;;;;;;4.00;3.60;;;;;;;;;;4989306;28;20244;-79
2021/10/18 03:54:53;;;;;;;4.05;3.75;;;;;;;;;;4989125;28;20218;-79
2021/10/18 03:57:22;;;;;;;3.55;3.25;;;;;;;;;;4990080;28;20194;-80
2021/10/18 03:59:49;;;;;;;4.25;3.85;;;;;;;;;;4992388;28;20201;-80
2021/10/18 04:02:16;;;;;;;5.13;3.58;;;;;;;;;;4987624;28;20213;-80
2021/10/18 04:04:43;;;;;;;5.78;4.25;;;;;;;;;;4990150;28;20201;-80
2021/10/18 04:07:10;;;;;;;4.43;3.50;;;;;;;;;;4990057;28;20193;-79
2021/10/18 04:09:38;;;;;;;3.55;3.25;;;;;;;;;;4988960;28;20198;-81
2021/10/18 04:12:06;;;;;;;4.28;3.88;;;;;;;;;;4989137;28;20197;-81
2021/10/18 04:14:34;;;;;;;7.20;3.75;;;;;;;;;;4988754;28;20746;-79
2021/10/18 04:17:01;;;;;;;4.88;4.28;;;;;;;;;;4990064;28;20193;-80
2021/10/18 04:19:28;;;;;;;4.60;4.00;;;;;;;;;;4990646;28;20573;-81
2021/10/18 04:21:55;;;;;;;4.90;3.67;;;;;;;;;;4989357;28;20204;-80
2021/10/18 04:24:22;;;;;;;4.43;4.03;;;;;;;;;;4988587;28;20238;-78
2021/10/18 04:26:49;;;;;;;4.60;3.30;;;;;;;;;;4981803;28;20198;-79
2021/10/18 04:29:16;;;;;;;4.07;3.67;;;;;;;;;;4991597;28;20200;-79
2021/10/18 04:31:45;;;;;;;4.38;3.97;;;;;;;;;;4988504;28;20230;-78
2021/10/18 04:34:12;;;;;;;3.60;3.30;;;;;;;;;;4987645;28;20198;-79
2021/10/18 04:36:39;;;;;;;4.15;3.75;;;;;;;;;;4990930;28;20229;-79
2021/10/18 04:39:06;;;;;;;3.25;3.00;;;;;;;;;;4988264;28;20684;-79
2021/10/18 04:41:33;;;;;;;5.65;3.60;;;;;;;;;;4989471;28;20205;-78
2021/10/18 04:44:00;;;;;;;3.65;3.20;;;;;;;;;;4991395;28;20209;-78
2021/10/18 04:46:27;;;;;;;3.85;2.97;;;;;;;;;;4990126;28;20198;-78
2021/10/18 04:48:55;;;;;;;4.57;2.95;;;;;;;;;;4987909;28;20209;-79
2021/10/18 04:51:22;;;;;;;4.15;3.00;;;;;;;;;;4992485;28;20201;-78
2021/10/18 04:53:49;;;;;;;4.03;3.65;;;;;;;;;;4988988;28;20657;-79
2021/10/18 04:56:16;;;;;;;4.22;3.83;;;;;;;;;;4988796;28;20584;-79
2021/10/18 04:58:43;;;;;;;3.67;3.38;;;;;;;;;;4989163;28;20672;-79
2021/10/18 05:01:10;;;;;;;4.15;3.75;;;;;;;;;;4988377;28;20197;-79
2021/10/18 05:03:37;;;;;;;5.28;3.70;;;;;;;;;;4989902;28;20201;-79
2021/10/18 05:06:06;;;;;;;3.17;2.88;;;;;;;;;;4992331;28;20627;-78
2021/10/18 05:08:33;;;;;;;4.32;3.25;;;;;;;;;;4987180;28;20252;-79
2021/10/18 05:11:00;;;;;;;3.45;2.95;;;;;;;;;;4987864;28;20668;-78
2021/10/18 05:13:27;;;;;;;3.58;3.20;;;;;;;;;;4989375;28;20210;-78
2021/10/18 05:15:54;;;;;;;4.35;3.55;;;;;;;;;;4988078;28;20218;-79
2021/10/18 05:18:21;;;;;;;4.97;2.75;;;;;;;;;;4983274;28;20248;-78
2021/10/18 05:20:49;;;;;;;3.53;3.20;;;;;;;;;;4979521;28;20198;-79
2021/10/18 05:23:17;;;;;;;4.82;3.08;;;;;;;;;;4981462;28;20201;-83
2021/10/18 05:25:45;;;;;;;3.75;3.40;;;;;;;;;;4990992;28;20205;-81
2021/10/18 05:28:12;;;;;;;3.85;3.55;;;;;;;;;;4989206;28;20205;-79
2021/10/18 05:30:39;;;;;;;3.38;3.05;;;;;;;;;;4988725;28;20236;-83
2021/10/18 05:33:06;;;;;;;7.78;4.28;;;;;;;;;;4989255;28;20673;-82
2021/10/18 05:35:33;;;;;;;3.70;3.40;;;;;;;;;;4989712;28;20640;-82
2021/10/18 05:38:02;;;;;;;3.28;3.00;;;;;;;;;;4987784;28;20236;-82
2021/10/18 05:40:31;;;;;;;4.82;3.25;;;;;;;;;;4987470;28;20573;-79
2021/10/18 05:42:58;;;;;;;3.92;3.05;;;;;;;;;;4988514;28;20597;-80
2021/10/18 05:45:25;;;;;;;4.57;3.58;;;;;;;;;;4991369;28;20201;-83
2021/10/18 05:47:53;;;;;;;3.45;2.75;;;;;;;;;;4989242;28;20237;-85
2021/10/18 05:50:20;;;;;;;2.88;2.67;;;;;;;;;;4989731;28;20720;-85
2021/10/18 05:52:47;;;;;;;3.30;3.00;;;;;;;;;;4989496;28;20209;-83
2021/10/18 05:55:14;;;;;;;3.70;2.95;;;;;;;;;;4980551;28;20197;-81
2021/10/18 05:57:50;;;;;;;4.05;2.70;;;;;;;;;;4989708;28;20214;-80
2021/10/18 06:00:17;;;;;;;3.28;2.97;;;;;;;;;;4991248;28;20208;-82
2021/10/18 06:02:44;;;;;;;3.20;2.72;;;;;;;;;;4989067;28;20198;-82
2021/10/18 06:05:11;;;;;;;3.03;2.83;;;;;;;;;;4991010;28;20193;-82
2021/10/18 06:07:39;;;;;;;3.35;3.03;;;;;;;;;;4988619;28;20210;-81
2021/10/18 06:10:07;;;;;;;5.30;3.40;;;;;;;;;;4991502;28;20197;-82
2021/10/18 06:12:34;;;;;;;4.38;3.70;;;;;;;;;;4992171;28;20216;-83
2021/10/18 06:15:03;;;;;;;4.28;3.53;;;;;;;;;;4991624;28;20198;-83
2021/10/18 06:17:30;;;;;;;4.18;2.80;;;;;;;;;;4991037;28;20213;-81
2021/10/18 06:19:57;;;;;;;4.47;2.88;;;;;;;;;;4991007;28;20620;-80
2021/10/18 06:22:24;;;;;;;3.17;2.97;;;;;;;;;;4992518;28;20224;-82
2021/10/18 06:24:52;;;;;;;5.13;3.40;;;;;;;;;;4992392;28;20260;-83
2021/10/18 06:27:20;;;;;;;3.30;3.00;;;;;;;;;;4992122;28;20212;-81
2021/10/18 06:29:48;;;;;;;4.13;3.67;;;;;;;;;;4991930;28;20723;-83
2021/10/18 06:32:16;;;;;;;4.20;3.80;;;;;;;;;;4991601;28;20208;-81
2021/10/18 06:34:43;;;;;;;4.00;3.20;;;;;;;;;;4992932;28;20202;-82
2021/10/18 06:37:10;;;;;;;3.47;3.10;;;;;;;;;;4991517;28;20588;-80
2021/10/18 06:39:37;;;;;;;4.63;3.97;;;;;;;;;;4991232;28;20206;-80
2021/10/18 06:42:04;;;;;;;5.57;4.53;;;;;;;;;;4991331;28;20202;-78
2021/10/18 06:44:32;;;;;;;6.63;4.82;;;;;;;;;;4990980;28;20691;-78
2021/10/18 06:46:59;;;;;;;5.50;4.40;;;;;;;;;;4988654;28;20197;-79
2021/10/18 06:49:27;;;;;;;4.50;4.05;;;;;;;;;;4990469;28;20624;-79
2021/10/18 06:51:55;;;;;;;4.97;4.10;;;;;;;;;;4991384;28;20209;-78
2021/10/18 06:54:23;;;;;;;5.72;4.57;;;;;;;;;;4984757;28;20205;-76
2021/10/18 06:56:51;;;;;;;6.30;3.90;;;;;;;;;;4994074;28;20217;-78
2021/10/18 06:59:18;;;;;;;4.65;4.25;;;;;;;;;;4993384;28;20292;-78
2021/10/18 07:01:45;;;;;;;5.15;3.70;;;;;;;;;;4991477;28;20201;-77
2021/10/18 07:04:16;;;;;;;6.47;4.90;;;;;;;;;;4990098;28;20202;-81
2021/10/18 07:06:44;;;;;;;3.70;3.30;;;;;;;;;;4992055;28;20198;-82
2021/10/18 07:09:11;;;;;;;3.83;3.35;;;;;;;;;;4989886;28;21999;-82
2021/10/18 07:11:38;;;;;;;8.30;4.00;;;;;;;;;;4991509;28;20189;-78
2021/10/18 07:14:05;;;;;;;4.50;3.75;;;;;;;;;;4990313;28;20202;-80
2021/10/18 07:16:32;;;;;;;5.70;4.20;;;;;;;;;;4991565;28;20213;-79
2021/10/18 07:18:59;;;;;;;3.10;2.80;;;;;;;;;;4988087;28;20279;-78
2021/10/18 07:21:27;;;;;;;6.90;3.88;;;;;;;;;;4987715;28;20715;-78
2021/10/18 07:23:58;;;;;;;3.85;2.95;;;;;;;;;;4984617;28;20440;-77
2021/10/18 07:26:25;;;;;;;4.65;3.95;;;;;;;;;;4988202;28;20253;-77
2021/10/18 07:28:54;;;;;;;7.43;5.85;;;;;;;;;;4988834;28;20190;-73
2021/10/18 07:31:21;;;;;;;8.65;6.78;;;;;;;;;;4983203;28;20209;-75
2021/10/18 07:33:49;;;;;;;10.32;6.68;;;;;;;;;;4984976;28;20260;-75
2021/10/18 07:36:23;;;;;;;20.67;8.57;;;;;;;;;;4985006;28;20620;-75
2021/10/18 07:38:51;;;;;;;6.55;5.93;;;;;;;;;;4989183;28;20224;-76
2021/10/18 07:41:19;;;;;;;7.00;6.30;;;;;;;;;;4990924;28;20358;-76
2021/10/18 07:43:46;;;;;;;7.35;6.65;;;;;;;;;;4991170;28;20282;-75
2021/10/18 07:46:13;;;;;;;8.82;6.25;;;;;;;;;;4987206;28;20248;-74
2021/10/18 07:48:40;;;;;;;11.18;7.22;;;;;;;;;;4987071;28;20657;-74
2021/10/18 07:51:07;;;;;;;15.85;7.63;;;;;;;;;;4993512;28;20244;-74
2021/10/18 07:53:34;;;;;;;12.77;7.55;;;;;;;;;;4984164;28;20206;-77
2021/10/18 07:56:02;;;;;;;6.57;5.75;;;;;;;;;;4986833;28;20617;-77
2021/10/18 07:58:30;;;;;;;10.30;6.53;;;;;;;;;;4986997;28;20285;-77
2021/10/18 08:00:57;;;;;;;7.45;5.35;;;;;;;;;;4979377;28;20209;-75
2021/10/18 08:03:24;;;;;;;11.02;5.20;;;;;;;;;;4982340;28;20223;-79
2021/10/18 08:05:51;;;;;;;7.65;5.03;;;;;;;;;;4982245;28;20972;-79
2021/10/18 08:08:22;;;;;;;6.75;4.30;;;;;;;;;;4984994;28;20203;-79
2021/10/18 08:10:49;;;;;;;8.13;4.53;;;;;;;;;;4983912;28;20197;-77
2021/10/18 08:13:17;;;;;;;6.40;5.20;;;;;;;;;;4984666;28;20692;-79
2021/10/18 08:15:45;;;;;;;4.05;3.75;;;;;;;;;;4982855;28;20206;-76
2021/10/18 08:18:12;;;;;;;5.45;4.18;;;;;;;;;;4981990;28;20225;-80
2021/10/18 08:20:40;;;;;;;4.15;3.65;;;;;;;;;;4983010;28;20194;-77
2021/10/18 08:23:08;;;;;;;5.60;3.83;;;;;;;;;;4982106;28;20197;-77
2021/10/18 08:25:35;;;;;;;4.95;3.55;;;;;;;;;;4982643;28;20205;-77
2021/10/18 08:28:02;;;;;;;5.88;3.38;;;;;;;;;;4983533;28;20206;-78
2021/10/18 08:30:29;;;;;;;7.15;3.35;;;;;;;;;;4983560;28;20681;-78
2021/10/18 08:32:57;;;;;;;4.00;3.60;;;;;;;;;;4988662;28;20201;-79
2021/10/18 08:35:24;;;;;;;3.40;3.00;;;;;;;;;;4992251;28;20243;-79
2021/10/18 08:40:40;;;;;;;4.72;3.55;;;;;;;;;;4988926;28;20318;-77
2021/10/18 08:43:12;;;;;;;3.83;3.40;;;;;;;;;;4993759;28;20292;-79
2021/10/18 08:45:40;;;;;;;3.47;3.17;;;;;;;;;;4989441;28;20197;-79
2021/10/18 08:48:10;;;;;;;5.35;3.80;;;;;;;;;;4990535;28;20205;-78
2021/10/18 08:50:38;;;;;;;4.13;3.15;;;;;;;;;;4990064;28;20201;-79
2021/10/18 08:53:05;;;;;;;3.40;3.20;;;;;;;;;;4985683;28;20216;-78
2021/10/18 08:55:35;;;;;;;3.95;3.55;;;;;;;;;;4987931;28;20209;-80
2021/10/18 08:58:02;;;;;;;3.10;2.80;;;;;;;;;;4988706;28;20620;-78
2021/10/18 09:00:40;;;;;;;3.25;2.70;;;;;;;;;;4991142;28;20657;-78
2021/10/18 09:03:18;;;;;;;5.40;3.20;;;;;;;;;;4989994;28;20234;-79
2021/10/18 09:05:46;;;;;;;4.07;3.00;;;;;;;;;;4993165;28;20212;-78
2021/10/18 09:08:33;;;;;;;3.50;3.20;;;;;;;;;;4989526;28;20652;-78
2021/10/18 09:11:04;;;;;;;6.35;4.25;;;;;;;;;;4988875;28;20292;-78
2021/10/18 09:13:31;;;;;;;2.90;2.70;;;;;;;;;;4988796;28;20198;-81
2021/10/18 09:15:58;;;;;;;2.88;2.65;;;;;;;;;;4988391;28;20597;-78
2021/10/18 09:18:26;;;;;;;2.67;2.47;;;;;;;;;;4986803;28;20225;-77
2021/10/18 09:20:53;;;;;;;5.50;3.33;;;;;;;;;;4987818;28;20201;-78
2021/10/18 09:23:25;;;;;;;5.15;3.22;;;;;;;;;;4988183;28;20205;-77
2021/10/18 09:25:53;;;;;;;2.53;2.25;;;;;;;;;;4992237;28;20213;-78
2021/10/18 09:28:24;;;;;;;3.72;2.83;;;;;;;;;;4991575;28;20284;-78
2021/10/18 09:30:51;;;;;;;5.40;3.58;;;;;;;;;;4986554;28;20213;-77
2021/10/18 09:33:21;;;;;;;3.45;2.90;;;;;;;;;;4988274;28;20197;-77
2021/10/18 09:35:50;;;;;;;5.13;3.20;;;;;;;;;;4987875;28;20234;-76
2021/10/18 09:38:20;;;;;;;3.45;3.15;;;;;;;;;;4988536;28;20233;-77
2021/10/18 09:40:47;;;;;;;3.47;2.95;;;;;;;;;;4987826;28;20563;-77
2021/10/18 09:43:15;;;;;;;4.28;3.88;;;;;;;;;;4987143;28;20653;-78
2021/10/18 09:45:57;;;;;;;5.53;2.90;;;;;;;;;;4989014;28;20197;-77
2021/10/18 10:53:15;;;;;;;7.57;3.00;;;;;;;;;;4985825;28;20205;-78
2021/10/18 10:55:42;;;;;;;2.78;2.58;;;;;;;;;;4986507;28;20190;-78
2021/10/18 10:58:24;;;;;;;3.15;2.85;;;;;;;;;;4984872;28;20236;-80
2021/10/18 11:00:51;;;;;;;12.52;3.90;;;;;;;;;;4983147;28;20561;-83
2021/10/18 11:03:42;;;;;;;6.95;3.10;;;;;;;;;;4983560;28;20717;-77
2021/10/18 11:06:10;;;;;;;7.68;3.25;;;;;;;;;;4984433;28;20203;-78
2021/10/18 11:08:39;;;;;;;3.53;3.22;;;;;;;;;;4985289;28;20496;-79
2021/10/18 11:11:13;;;;;;;3.20;2.72;;;;;;;;;;4987481;28;20202;-78
2021/10/18 11:13:58;;;;;;;2.80;2.50;;;;;;;;;;4980783;28;20642;-78
2021/10/18 11:16:26;;;;;;;5.93;3.78;;;;;;;;;;4983044;28;20240;-77
2021/10/18 11:18:56;;;;;;;4.97;4.20;;;;;;;;;;4982417;28;20605;-79
2021/10/18 11:21:25;;;;;;;4.15;2.35;;;;;;;;;;4982358;28;20213;-79
2021/10/18 11:23:56;;;;;;;5.45;3.45;;;;;;;;;;4982008;28;20194;-78
2021/10/18 11:26:23;;;;;;;3.90;2.88;;;;;;;;;;4984837;28;20217;-80
2021/10/18 11:28:52;;;;;;;3.15;2.80;;;;;;;;;;4984200;28;20193;-79
2021/10/18 11:31:19;;;;;;;3.95;2.90;;;;;;;;;;4984730;28;20221;-79
2021/10/18 11:34:01;;;;;;;6.60;3.88;;;;;;;;;;4983622;28;20197;-74
2021/10/18 11:36:28;;;;;;;8.20;3.63;;;;;;;;;;4983596;28;20197;-74
2021/10/18 11:39:07;;;;;;;5.00;3.45;;;;;;;;;;4987905;28;20793;-74
2021/10/18 11:41:53;;;;;;;5.38;3.72;;;;;;;;;;4981520;28;20209;-74
2021/10/18 11:44:20;;;;;;;6.10;3.90;;;;;;;;;;4982307;28;20267;-74
2021/10/18 11:46:47;;;;;;;4.13;3.05;;;;;;;;;;4978754;28;20202;-74
2021/10/18 11:49:16;;;;;;;4.78;3.33;;;;;;;;;;4980775;28;20343;-74
2021/10/18 11:51:43;;;;;;;5.65;3.60;;;;;;;;;;4983716;28;20209;-74
2021/10/18 11:54:10;;;;;;;6.97;3.20;;;;;;;;;;4984201;28;20193;-74
2021/10/18 11:56:37;;;;;;;5.65;3.47;;;;;;;;;;4974094;28;20640;-74
2021/10/18 11:59:06;;;;;;;12.98;3.45;;;;;;;;;;4973500;28;20226;-73
2021/10/18 12:01:34;;;;;;;5.18;3.25;;;;;;;;;;4986066;28;20285;-74
2021/10/18 12:04:01;;;;;;;6.28;2.83;;;;;;;;;;4984943;28;20284;-73
2021/10/18 12:06:29;;;;;;;6.97;2.95;;;;;;;;;;4983903;28;20248;-73
2021/10/18 12:08:57;;;;;;;11.40;3.33;;;;;;;;;;4982833;28;20581;-74
2021/10/18 12:11:27;;;;;;;9.07;3.42;;;;;;;;;;4983965;28;20910;-74
2021/10/18 12:13:54;;;;;;;5.30;2.92;;;;;;;;;;4983535;28;20207;-73
2021/10/18 12:16:23;;;;;;;5.32;2.50;;;;;;;;;;4987208;28;20550;-73
2021/10/18 12:18:52;;;;;;;5.05;2.90;;;;;;;;;;4992864;28;20709;-73
2021/10/18 12:21:23;;;;;;;7.35;3.33;;;;;;;;;;4989344;28;20297;-73
2021/10/18 12:23:53;;;;;;;4.00;2.50;;;;;;;;;;4983830;28;20204;-73
2021/10/18 12:26:21;;;;;;;6.78;2.80;;;;;;;;;;4986260;28;20209;-72
2021/10/18 12:28:50;;;;;;;4.63;2.30;;;;;;;;;;4983386;28;20795;-72
2021/10/18 12:31:40;;;;;;;5.53;2.30;;;;;;;;;;4985027;28;20368;-73
2021/10/18 12:34:11;;;;;;;4.15;2.75;;;;;;;;;;4983327;28;20198;-72
2021/10/18 12:36:48;;;;;;;4.60;2.47;;;;;;;;;;4988205;28;20201;-72
2021/10/18 12:39:31;;;;;;;3.40;2.30;;;;;;;;;;4977812;28;20221;-73
2021/10/18 12:41:58;;;;;;;4.65;2.25;;;;;;;;;;4984922;28;20198;-73
2021/10/18 12:44:29;;;;;;;3.80;2.90;;;;;;;;;;4983118;28;20300;-73
2021/10/18 12:46:56;;;;;;;3.33;2.38;;;;;;;;;;4984358;28;20296;-72
2021/10/18 12:49:28;;;;;;;4.15;2.20;;;;;;;;;;4981793;28;20201;-73
2021/10/18 12:51:55;;;;;;;8.07;2.92;;;;;;;;;;4982902;28;20232;-73
2021/10/18 12:54:25;;;;;;;7.43;3.10;;;;;;;;;;4982483;28;20206;-72
2021/10/18 12:57:06;;;;;;;7.63;2.40;;;;;;;;;;4986886;28;20596;-73
2021/10/18 12:59:33;;;;;;;16.55;3.72;;;;;;;;;;4983011;28;20201;-72
2021/10/18 13:02:17;;;;;;;4.78;2.95;;;;;;;;;;4983430;28;20217;-73
2021/10/18 13:04:58;;;;;;;4.20;2.00;;;;;;;;;;4987801;28;20624;-72
2021/10/18 13:07:25;;;;;;;4.05;2.92;;;;;;;;;;4991843;28;20228;-73
2021/10/18 13:09:53;;;;;;;3.80;2.33;;;;;;;;;;4982363;28;20693;-72
2021/10/18 13:12:22;;;;;;;4.00;2.20;;;;;;;;;;4989361;28;20257;-73
2021/10/18 13:14:49;;;;;;;3.25;2.20;;;;;;;;;;4987934;28;20221;-73
2021/10/18 13:17:16;;;;;;;7.95;2.58;;;;;;;;;;4984754;28;20206;-74
2021/10/18 13:19:43;;;;;;;3.42;2.60;;;;;;;;;;4979027;28;20205;-74
2021/10/18 13:22:10;;;;;;;2.53;1.90;;;;;;;;;;4984281;28;20194;-73
2021/10/18 13:24:37;;;;;;;4.53;1.65;;;;;;;;;;4982917;28;20225;-73
2021/10/18 13:27:06;;;;;;;7.80;2.28;;;;;;;;;;4981865;28;20747;-73
2021/10/18 13:29:33;;;;;;;2.38;2.03;;;;;;;;;;4984897;28;20201;-73
2021/10/18 13:32:01;;;;;;;3.38;2.78;;;;;;;;;;4990708;28;20247;-73
2021/10/18 13:34:28;;;;;;;5.47;2.25;;;;;;;;;;4988317;28;20256;-73
2021/10/18 13:36:56;;;;;;;4.00;2.10;;;;;;;;;;4987297;28;20205;-73
2021/10/18 13:39:23;;;;;;;17.35;3.67;;;;;;;;;;4984495;28;20213;-73
2021/10/18 13:41:50;;;;;;;10.20;3.10;;;;;;;;;;4986511;28;20193;-74
2021/10/18 13:44:18;;;;;;;3.60;1.90;;;;;;;;;;4985789;28;20272;-72
2021/10/18 13:46:45;;;;;;;2.38;1.85;;;;;;;;;;4987234;28;20739;-73
2021/10/18 13:49:12;;;;;;;4.15;2.42;;;;;;;;;;4986217;28;20201;-72
2021/10/18 13:51:40;;;;;;;4.93;4.05;;;;;;;;;;4984788;28;20476;-73
2021/10/18 13:54:07;;;;;;;4.28;3.88;;;;;;;;;;4985043;28;20265;-72
2021/10/18 13:56:37;;;;;;;8.55;2.30;;;;;;;;;;4985040;28;20624;-73
2021/10/18 13:59:04;;;;;;;3.70;3.40;;;;;;;;;;4985387;28;20243;-73
2021/10/18 14:01:32;;;;;;;3.50;2.90;;;;;;;;;;4986861;28;20661;-73
2021/10/18 14:03:59;;;;;;;3.30;2.45;;;;;;;;;;4985880;28;20653;-73
2021/10/18 14:06:26;;;;;;;3.55;2.28;;;;;;;;;;4984605;28;20198;-73
2021/10/18 14:08:53;;;;;;;6.18;2.65;;;;;;;;;;4986067;28;20201;-73
2021/10/18 14:11:21;;;;;;;4.30;2.60;;;;;;;;;;4984912;28;20256;-74
2021/10/18 14:13:48;;;;;;;6.25;2.78;;;;;;;;;;4984843;28;20201;-73
2021/10/18 14:16:15;;;;;;;2.75;2.17;;;;;;;;;;4985463;28;20524;-72
2021/10/18 14:18:44;;;;;;;4.03;2.78;;;;;;;;;;4983903;28;20210;-73
2021/10/18 14:21:11;;;;;;;12.25;2.97;;;;;;;;;;4985816;28;20205;-74
2021/10/18 14:23:38;;;;;;;9.18;2.83;;;;;;;;;;4984416;28;20202;-74
2021/10/18 14:26:05;;;;;;;9.35;2.47;;;;;;;;;;4985346;28;20209;-73
2021/10/18 14:28:32;;;;;;;9.27;2.63;;;;;;;;;;4985471;28;20244;-72
2021/10/18 14:31:00;;;;;;;12.18;3.38;;;;;;;;;;4984435;28;20229;-73
2021/10/18 14:33:27;;;;;;;8.27;4.22;;;;;;;;;;4982933;28;20461;-76
2021/10/18 14:35:55;;;;;;;9.35;3.20;;;;;;;;;;4989412;28;20623;-77
2021/10/18 14:38:23;;;;;;;6.38;2.55;;;;;;;;;;4992399;28;20596;-76
2021/10/18 14:40:50;;;;;;;6.45;2.40;;;;;;;;;;4985571;28;20677;-76
2021/10/18 14:43:17;;;;;;;2.97;1.77;;;;;;;;;;4985319;28;20285;-76
2021/10/18 14:45:44;;;;;;;6.05;2.75;;;;;;;;;;4987470;28;20560;-77
2021/10/18 14:48:11;;;;;;;4.20;2.50;;;;;;;;;;4984519;28;20198;-77
2021/10/18 14:50:38;;;;;;;4.88;2.60;;;;;;;;;;4984896;28;20205;-76
2021/10/18 14:53:08;;;;;;;2.25;1.90;;;;;;;;;;4983390;28;20200;-76
2021/10/18 14:55:39;;;;;;;2.72;1.80;;;;;;;;;;4982896;28;20194;-77
2021/10/18 14:58:06;;;;;;;3.30;2.33;;;;;;;;;;4983871;28;20637;-75
2021/10/18 15:00:33;;;;;;;2.75;1.88;;;;;;;;;;4984562;28;20201;-76
2021/10/18 15:03:00;;;;;;;5.15;2.55;;;;;;;;;;4984761;28;20197;-76
2021/10/18 15:05:27;;;;;;;2.50;1.88;;;;;;;;;;4983711;28;20256;-76
2021/10/18 15:07:54;;;;;;;2.83;2.03;;;;;;;;;;4984268;28;20212;-75
2021/10/18 15:10:24;;;;;;;2.90;1.90;;;;;;;;;;4984746;28;20660;-76
2021/10/18 15:12:51;;;;;;;3.75;1.77;;;;;;;;;;4983878;28;20201;-76
2021/10/18 15:15:19;;;;;;;1.70;1.60;;;;;;;;;;4984592;28;20205;-77
2021/10/18 15:17:46;;;;;;;2.50;2.10;;;;;;;;;;4984100;28;20672;-75
2021/10/18 15:20:13;;;;;;;2.65;2.22;;;;;;;;;;4984828;28;20276;-75
2021/10/18 15:22:40;;;;;;;6.40;1.95;;;;;;;;;;4984576;28;20248;-77
2021/10/18 15:25:08;;;;;;;3.55;2.00;;;;;;;;;;4992934;28;20612;-76
2021/10/18 15:27:36;;;;;;;2.33;1.70;;;;;;;;;;4987595;28;20202;-77
2021/10/18 15:30:04;;;;;;;3.20;2.00;;;;;;;;;;4983968;28;20213;-77
2021/10/18 15:32:31;;;;;;;2.53;2.10;;;;;;;;;;4982914;28;20613;-77
2021/10/18 15:34:58;;;;;;;4.35;1.83;;;;;;;;;;4983201;28;20664;-78
2021/10/18 15:37:25;;;;;;;3.25;2.38;;;;;;;;;;4989534;28;20255;-78
2021/10/18 15:39:52;;;;;;;3.63;1.60;;;;;;;;;;4988279;28;20230;-78
2021/10/18 15:42:19;;;;;;;2.28;2.08;;;;;;;;;;4991555;28;20205;-78
2021/10/18 15:44:48;;;;;;;2.58;1.67;;;;;;;;;;4988966;28;20256;-79
2021/10/18 15:47:15;;;;;;;3.58;2.20;;;;;;;;;;4984980;28;20224;-76
2021/10/18 15:49:42;;;;;;;2.00;1.80;;;;;;;;;;4983687;28;20673;-78
2021/10/18 15:52:09;;;;;;;2.20;2.00;;;;;;;;;;4983969;28;20198;-77
2021/10/18 15:54:36;;;;;;;3.20;2.30;;;;;;;;;;4983685;28;20209;-77
2021/10/18 15:57:04;;;;;;;2.13;1.75;;;;;;;;;;4986071;28;20197;-77